Time;durP1;ratioP1;P1;durP2;ratioP2;P2;SDS_P1;SDS_P2;PMS_P1;PMS_P2;Temp;Humidity;BMP_temperature;BMP_pressure;BME280_temperature;BME280_humidity;BME280_pressure;Samples;Min_cycle;Max_cycle;Signal;HPM_P1;HPM_P2
2022/11/30 00:00:00;;;;;;;12.43;11.13;;;;;;;8.19;67.74;98243.84;8379095;28;20241;-72
2022/11/30 00:04:02;;;;;;;12.53;10.43;;;;;;;8.59;67.58;98241.81;8386417;28;20358;-72
2022/11/30 00:08:05;;;;;;;12.10;10.93;;;;;;;8.71;67.22;98238.81;8386397;28;20245;-72
2022/11/30 00:12:09;;;;;;;12.50;11.10;;;;;;;8.46;67.51;98241.34;8386234;28;20237;-71
2022/11/30 00:16:12;;;;;;;11.33;10.20;;;;;;;8.67;67.20;98241.56;8385940;28;20233;-72
2022/11/30 00:20:16;;;;;;;9.63;8.73;;;;;;;8.20;66.25;98185.34;8386091;28;20530;-72
2022/11/30 00:24:19;;;;;;;9.87;8.97;;;;;;;8.50;67.72;98230.03;8385789;28;20298;-72
2022/11/30 00:28:23;;;;;;;10.00;9.07;;;;;;;7.46;69.69;98239.06;8385613;28;20255;-72
2022/11/30 00:32:26;;;;;;;9.27;8.37;;;;;;;8.02;68.01;98231.47;8385837;28;20236;-72
2022/11/30 00:36:28;;;;;;;9.37;8.47;;;;;;;8.09;66.68;98236.44;8385388;28;20233;-72
2022/11/30 00:40:31;;;;;;;9.87;8.97;;;;;;;7.80;67.94;98230.41;8385115;28;20232;-71
2022/11/30 00:44:35;;;;;;;8.87;8.07;;;;;;;8.18;67.41;98239.56;8385360;28;20224;-72
2022/11/30 00:48:38;;;;;;;9.73;8.83;;;;;;;7.59;67.54;98245.59;8385125;28;20241;-72
2022/11/30 00:52:41;;;;;;;9.37;7.97;;;;;;;7.83;67.29;98243.22;8384728;28;20236;-72
2022/11/30 00:56:43;;;;;;;8.87;8.00;;;;;;;8.08;67.03;98245.91;8385028;28;20232;-72
2022/11/30 01:00:48;;;;;;;8.70;7.90;;;;;;;8.16;65.99;98235.38;8384100;28;20233;-72
2022/11/30 01:04:50;;;;;;;9.53;8.63;;;;;;;7.73;67.24;98252.09;8384621;28;20525;-72
2022/11/30 01:08:53;;;;;;;9.03;8.13;;;;;;;7.98;65.84;98250.50;8383633;28;20244;-71
2022/11/30 01:12:56;;;;;;;9.03;8.23;;;;;;;8.19;66.05;98248.19;8383811;28;20520;-71
2022/11/30 01:17:00;;;;;;;10.43;9.53;;;;;;;7.55;67.08;98256.03;8384049;28;20249;-71
2022/11/30 01:21:06;;;;;;;9.40;8.60;;;;;;;7.53;67.70;98255.22;8383752;28;20252;-71
2022/11/30 01:25:09;;;;;;;8.93;8.13;;;;;;;7.47;68.25;98251.09;8383751;28;20228;-71
2022/11/30 01:29:11;;;;;;;9.43;8.63;;;;;;;7.56;67.09;98256.00;8383524;28;20259;-71
2022/11/30 01:33:16;;;;;;;9.20;8.40;;;;;;;7.76;67.52;98272.63;8383348;28;20244;-71
2022/11/30 01:37:18;;;;;;;8.40;7.57;;;;;;;7.77;67.31;98264.88;8383179;28;20245;-72
2022/11/30 01:41:23;;;;;;;9.87;8.43;;;;;;;7.70;68.39;98263.34;8383326;28;20495;-72
2022/11/30 01:45:26;;;;;;;9.53;8.63;;;;;;;7.30;69.07;98273.88;8383074;28;20236;-72
2022/11/30 01:49:31;;;;;;;9.10;8.30;;;;;;;7.47;68.39;98253.66;8382973;28;20516;-72
2022/11/30 01:53:34;;;;;;;8.27;7.57;;;;;;;7.93;66.91;98267.00;8382542;28;20233;-72
2022/11/30 01:57:39;;;;;;;9.20;8.37;;;;;;;7.75;66.54;98258.03;8382685;28;20283;-72
2022/11/30 02:01:42;;;;;;;10.00;9.00;;;;;;;7.33;67.40;98253.19;8382584;28;20232;-71
2022/11/30 02:05:46;;;;;;;9.43;8.63;;;;;;;7.23;68.91;98271.47;8382330;28;20241;-72
2022/11/30 02:09:49;;;;;;;10.13;8.80;;;;;;;8.03;65.91;98269.28;8381103;28;20295;-71
2022/11/30 02:14:17;;;;;;;9.80;8.90;;;;;;;7.83;65.59;98264.69;8381670;28;20228;-69
2022/11/30 02:18:25;;;;;;;10.93;9.83;;;;;;;7.39;67.45;98269.34;8379346;28;20543;-73
2022/11/30 02:22:43;;;;;;;12.03;10.83;;;;;;;7.34;67.49;98267.75;8381706;28;20240;-71
2022/11/30 02:26:58;;;;;;;10.87;9.77;;;;;;;7.91;66.34;98272.19;8381344;28;20240;-71
2022/11/30 02:31:04;;;;;;;11.10;10.00;;;;;;;7.53;66.89;98273.28;8381288;28;20424;-71
2022/11/30 02:35:08;;;;;;;10.67;9.57;;;;;;;7.90;66.26;98270.53;8381350;28;20229;-71
2022/11/30 02:39:11;;;;;;;10.60;9.50;;;;;;;8.20;65.36;98278.25;8381229;28;20233;-72
2022/11/30 02:43:15;;;;;;;10.00;9.00;;;;;;;7.94;65.03;98243.75;8381207;28;20228;-72
2022/11/30 02:47:23;;;;;;;10.20;9.07;;;;;;;8.37;64.55;98275.16;8381048;28;20336;-72
2022/11/30 02:51:27;;;;;;;10.50;9.50;;;;;;;8.32;64.78;98279.59;8380816;28;20396;-72
2022/11/30 02:55:30;;;;;;;10.63;9.63;;;;;;;7.75;65.05;98215.06;8380897;28;20238;-72
2022/11/30 02:59:33;;;;;;;11.47;10.37;;;;;;;8.09;65.83;98270.84;8381085;28;20232;-72
2022/11/30 03:03:37;;;;;;;10.40;9.33;;;;;;;8.11;64.93;98281.94;8380795;28;20233;-72
2022/11/30 03:07:40;;;;;;;11.63;10.43;;;;;;;7.86;66.13;98286.94;8380359;28;20528;-72
2022/11/30 03:11:42;;;;;;;12.63;11.07;;;;;;;8.00;65.81;98290.00;8380403;28;20232;-72
2022/11/30 03:15:46;;;;;;;13.00;11.70;;;;;;;7.30;68.20;98294.50;8380499;28;20240;-72
2022/11/30 03:19:50;;;;;;;13.97;12.50;;;;;;;7.18;68.75;98290.50;8380202;28;20422;-72
2022/11/30 03:23:53;;;;;;;12.63;11.03;;;;;;;7.11;69.08;98286.41;8379727;28;20528;-72
2022/11/30 03:27:56;;;;;;;13.90;11.90;;;;;;;7.31;67.40;98289.31;8379830;28;20598;-71
2022/11/30 03:31:58;;;;;;;12.07;10.77;;;;;;;7.78;66.41;98299.22;8380084;28;20296;-72
2022/11/30 03:36:04;;;;;;;13.97;12.07;;;;;;;7.55;67.01;98299.84;8380002;28;20221;-73
2022/11/30 03:40:09;;;;;;;11.93;10.73;;;;;;;7.58;67.87;98299.78;8379757;28;20250;-71
2022/11/30 03:44:11;;;;;;;13.37;11.93;;;;;;;7.62;66.30;98298.81;8379829;28;20593;-71
2022/11/30 03:48:14;;;;;;;12.50;11.03;;;;;;;7.52;65.92;98308.53;8379919;28;20393;-71
2022/11/30 03:52:18;;;;;;;12.20;11.00;;;;;;;7.68;67.20;98305.53;8379445;28;20232;-71
2022/11/30 03:56:21;;;;;;;13.50;11.97;;;;;;;8.02;65.44;98295.94;8379696;28;20233;-71
2022/11/30 04:00:23;;;;;;;15.07;11.83;;;;;;;7.52;68.21;98292.19;8379513;28;20240;-71
2022/11/30 04:04:26;;;;;;;13.03;11.67;;;;;;;7.88;66.11;98303.25;8379559;28;20560;-71
2022/11/30 04:08:30;;;;;;;12.80;11.50;;;;;;;7.90;65.43;98295.44;8379287;28;20241;-71
2022/11/30 04:12:33;;;;;;;14.33;11.40;;;;;;;7.90;65.47;98291.16;8379343;28;20279;-71
2022/11/30 04:16:36;;;;;;;13.47;11.60;;;;;;;7.72;65.49;98289.09;8379469;28;20264;-71
2022/11/30 04:20:39;;;;;;;13.30;11.50;;;;;;;8.02;65.15;98285.63;8379140;28;20249;-71
2022/11/30 04:24:43;;;;;;;13.67;11.67;;;;;;;7.45;65.77;98214.22;8379077;28;20224;-71
2022/11/30 04:28:46;;;;;;;13.67;11.80;;;;;;;8.14;64.29;98299.06;8379046;28;20240;-71
2022/11/30 04:32:49;;;;;;;12.80;11.30;;;;;;;8.10;63.98;98300.03;8378794;28;20241;-72
2022/11/30 04:36:52;;;;;;;13.07;11.77;;;;;;;8.16;64.75;98300.69;8376396;28;20225;-70
2022/11/30 04:41:07;;;;;;;13.27;11.80;;;;;;;8.01;64.37;98298.56;8385006;28;20296;-72
2022/11/30 04:45:11;;;;;;;13.23;11.70;;;;;;;7.86;66.18;98304.16;8384703;28;20248;-72
2022/11/30 04:49:14;;;;;;;14.80;12.57;;;;;;;7.64;66.18;98310.75;8384592;28;20221;-72
2022/11/30 04:53:17;;;;;;;13.10;11.70;;;;;;;7.81;66.32;98299.16;8384139;28;20312;-72
2022/11/30 04:57:21;;;;;;;14.50;11.67;;;;;;;7.78;65.52;98301.78;8384587;28;20528;-72
2022/11/30 05:01:24;;;;;;;13.47;11.77;;;;;;;7.71;65.77;98301.13;8384629;28;20239;-72
2022/11/30 05:05:27;;;;;;;13.10;11.27;;;;;;;7.59;67.38;98304.88;8384344;28;20232;-72
2022/11/30 05:09:30;;;;;;;13.97;11.70;;;;;;;7.89;66.04;98310.06;8384101;28;20245;-72
2022/11/30 05:13:34;;;;;;;14.00;12.50;;;;;;;7.51;66.06;98318.84;8383868;28;20441;-72
2022/11/30 05:17:36;;;;;;;12.23;10.50;;;;;;;8.14;64.71;98322.28;8384082;28;20289;-72
2022/11/30 05:21:39;;;;;;;14.07;11.90;;;;;;;7.86;65.73;98320.47;8384053;28;20243;-72
2022/11/30 05:25:48;;;;;;;14.77;12.50;;;;;;;7.55;65.18;98312.72;8383899;28;20398;-73
2022/11/30 05:29:52;;;;;;;17.17;13.87;;;;;;;7.90;64.52;98318.66;8383759;28;20539;-72
2022/11/30 05:33:55;;;;;;;14.83;11.73;;;;;;;7.74;64.50;98324.22;8375309;28;20236;-71
2022/11/30 05:37:57;;;;;;;16.37;13.00;;;;;;;7.57;65.46;98322.09;8383475;28;20467;-72
2022/11/30 05:42:00;;;;;;;14.23;11.77;;;;;;;8.06;64.14;98325.06;8383323;28;20233;-72
2022/11/30 05:46:06;;;;;;;15.00;13.10;;;;;;;7.98;63.03;98329.63;8382993;28;20567;-72
2022/11/30 05:50:09;;;;;;;14.87;12.33;;;;;;;7.86;64.20;98327.38;8382684;28;20232;-71
2022/11/30 05:54:12;;;;;;;16.03;13.47;;;;;;;7.87;64.08;98335.06;8382714;28;21877;-72
2022/11/30 05:58:14;;;;;;;14.30;12.30;;;;;;;8.10;63.51;98333.59;8382720;28;20267;-71
2022/11/30 06:02:18;;;;;;;13.80;12.30;;;;;;;8.00;64.21;98333.00;8382519;28;20274;-71
2022/11/30 06:06:29;;;;;;;17.27;14.73;;;;;;;8.11;63.51;98323.22;8382495;28;20228;-71
2022/11/30 06:10:32;;;;;;;15.37;13.00;;;;;;;7.88;63.81;98318.72;8382086;28;20251;-71
2022/11/30 06:14:34;;;;;;;16.70;13.83;;;;;;;7.70;62.96;98309.75;8382186;28;20240;-71
2022/11/30 06:18:38;;;;;;;17.30;13.73;;;;;;;7.82;63.55;98329.19;8381902;28;20233;-72
2022/11/30 06:22:44;;;;;;;19.23;15.07;;;;;;;7.91;62.03;98330.66;8382086;28;20255;-72
2022/11/30 06:26:47;;;;;;;18.63;15.80;;;;;;;7.54;63.22;98341.97;8381764;28;20239;-73
2022/11/30 06:30:50;;;;;;;20.50;15.97;;;;;;;7.78;63.08;98345.63;8381508;28;20241;-73
2022/11/30 06:34:54;;;;;;;23.40;17.30;;;;;;;7.30;63.66;98343.44;8373073;28;20229;-72
2022/11/30 06:38:57;;;;;;;29.27;24.03;;;;;;;7.68;62.57;98334.72;8380921;28;20229;-71
2022/11/30 06:42:59;;;;;;;19.70;16.00;;;;;;;7.59;62.90;98340.13;8381276;28;20291;-71
2022/11/30 06:47:02;;;;;;;21.73;16.53;;;;;;;7.40;64.04;98347.47;8380830;28;20240;-70
2022/11/30 06:51:07;;;;;;;18.70;15.20;;;;;;;7.39;63.13;98350.94;8380519;28;20248;-70
2022/11/30 06:55:10;;;;;;;19.50;15.53;;;;;;;7.63;61.89;98349.44;8380786;28;20233;-70
2022/11/30 06:59:13;;;;;;;21.23;16.87;;;;;;;7.62;62.72;98346.03;8380379;28;20225;-70
2022/11/30 07:03:16;;;;;;;21.87;17.43;;;;;;;7.43;62.94;98355.97;8380588;28;20259;-70
2022/11/30 07:07:20;;;;;;;23.37;18.00;;;;;;;6.95;64.25;98361.44;8380714;28;20443;-70
2022/11/30 07:11:23;;;;;;;21.07;16.97;;;;;;;7.29;64.58;98360.66;8380616;28;20233;-73
2022/11/30 07:15:25;;;;;;;24.10;17.50;;;;;;;7.15;63.77;98355.81;8380721;28;20243;-71
2022/11/30 07:19:28;;;;;;;23.77;18.20;;;;;;;7.10;63.90;98360.25;8380407;28;20241;-72
2022/11/30 07:27:58;;;;;;;23.87;17.80;;;;;;;7.17;64.63;98359.19;8379455;28;20229;-71
2022/11/30 07:32:01;;;;;;;23.67;18.00;;;;;;;6.82;64.82;98360.03;8380134;28;20588;-72
2022/11/30 07:36:04;;;;;;;24.47;18.33;;;;;;;6.97;64.68;98361.41;8380046;28;20228;-71
2022/11/30 07:40:10;;;;;;;27.40;20.63;;;;;;;7.11;63.68;98361.91;8379763;28;20292;-72
2022/11/30 07:44:13;;;;;;;26.13;19.10;;;;;;;6.95;64.60;98370.88;8380092;28;20225;-72
2022/11/30 07:48:16;;;;;;;23.73;18.37;;;;;;;6.80;66.44;98370.38;8379886;28;20544;-71
2022/11/30 07:52:19;;;;;;;23.13;17.80;;;;;;;7.02;64.96;98367.28;8379429;28;20233;-72
2022/11/30 07:56:23;;;;;;;25.60;18.77;;;;;;;7.30;63.77;98372.63;8379793;28;20224;-72
2022/11/30 08:00:26;;;;;;;23.90;18.07;;;;;;;7.01;65.84;98375.91;8379715;28;20233;-71
2022/11/30 08:04:28;;;;;;;27.73;19.37;;;;;;;6.62;66.22;98379.31;8379347;28;20245;-71
2022/11/30 08:08:32;;;;;;;25.53;18.63;;;;;;;7.00;65.43;98379.34;8380377;28;20287;-70
2022/11/30 08:12:36;;;;;;;29.40;20.13;;;;;;;6.89;65.21;98383.91;8385775;28;20233;-70
2022/11/30 08:16:39;;;;;;;29.53;19.60;;;;;;;6.69;66.51;98385.19;8385632;28;20228;-72
2022/11/30 08:20:42;;;;;;;27.47;20.43;;;;;;;7.37;64.28;98381.06;8385489;28;20395;-72
2022/11/30 08:24:51;;;;;;;24.50;17.80;;;;;;;7.53;63.36;98378.94;8385433;28;20229;-72
2022/11/30 08:28:56;;;;;;;29.07;19.70;;;;;;;6.81;65.82;98391.81;8384948;28;20229;-72
2022/11/30 08:32:59;;;;;;;25.43;19.23;;;;;;;7.17;64.93;98391.84;8385186;28;20282;-72
2022/11/30 08:37:02;;;;;;;29.07;20.13;;;;;;;7.07;64.93;98398.09;8385303;28;20229;-72
2022/11/30 08:41:06;;;;;;;27.20;21.00;;;;;;;7.21;64.48;98399.44;8384800;28;20236;-72
2022/11/30 08:45:11;;;;;;;27.67;20.10;;;;;;;6.88;65.10;98401.09;8385010;28;20228;-73
2022/11/30 08:49:16;;;;;;;27.30;20.53;;;;;;;6.92;65.38;98404.44;8384541;28;20233;-72
2022/11/30 08:53:25;;;;;;;29.33;20.80;;;;;;;6.91;65.67;98401.03;8384529;28;20536;-72
2022/11/30 08:57:28;;;;;;;30.23;21.13;;;;;;;6.50;66.80;98419.94;8384430;28;20236;-72
2022/11/30 09:01:32;;;;;;;30.07;20.17;;;;;;;6.96;66.58;98418.94;8384161;28;20559;-72
2022/11/30 09:05:35;;;;;;;28.57;20.73;;;;;;;6.87;65.06;98416.56;8384096;28;20292;-72
2022/11/30 09:09:38;;;;;;;29.73;20.40;;;;;;;6.38;67.38;98416.72;8384058;28;20229;-72
2022/11/30 09:13:42;;;;;;;31.63;20.80;;;;;;;6.97;65.52;98418.06;8384110;28;20240;-72
2022/11/30 09:17:46;;;;;;;29.60;20.33;;;;;;;6.19;67.92;98430.84;8383842;28;20229;-72
2022/11/30 09:21:48;;;;;;;27.50;20.03;;;;;;;6.56;67.21;98437.81;8383439;28;20240;-73
2022/11/30 09:25:55;;;;;;;28.60;20.77;;;;;;;6.68;66.97;98444.44;8383201;28;20441;-72
2022/11/30 09:29:58;;;;;;;30.23;20.60;;;;;;;6.16;67.56;98446.31;8383207;28;20228;-71
2022/11/30 09:34:02;;;;;;;31.00;20.57;;;;;;;6.63;66.83;98449.69;8383373;28;20305;-72
2022/11/30 09:38:05;;;;;;;28.53;20.40;;;;;;;6.95;65.84;98437.81;8383288;28;20228;-73
2022/11/30 09:42:26;;;;;;;30.77;21.93;;;;;;;6.29;67.33;98431.50;8383358;28;20552;-72
2022/11/30 09:46:34;;;;;;;33.10;23.10;;;;;;;6.24;68.10;98436.72;8383233;28;20236;-74
2022/11/30 09:50:42;;;;;;;32.83;22.13;;;;;;;6.23;67.79;98428.16;8382729;28;20236;-73
2022/11/30 09:54:46;;;;;;;32.17;22.03;;;;;;;6.47;66.21;98425.97;8382587;28;20233;-74
2022/11/30 09:58:54;;;;;;;30.47;21.33;;;;;;;6.34;67.34;98427.97;8382607;28;20247;-72
2022/11/30 10:02:59;;;;;;;33.50;22.90;;;;;;;6.14;68.35;98437.78;8382063;28;20236;-72
2022/11/30 10:07:11;;;;;;;29.87;20.90;;;;;;;6.20;67.07;98442.81;8382237;28;20584;-74
2022/11/30 10:11:28;;;;;;;31.37;20.77;;;;;;;6.57;66.05;98427.50;8382340;28;20225;-74
2022/11/30 10:15:36;;;;;;;31.93;21.37;;;;;;;6.29;66.56;98429.78;8382317;28;20232;-73
2022/11/30 10:19:52;;;;;;;30.83;21.13;;;;;;;5.93;67.38;98439.00;8382168;28;20225;-71
2022/11/30 10:24:08;;;;;;;31.87;22.67;;;;;;;6.41;66.50;98429.50;8373814;28;20276;-70
2022/11/30 10:28:17;;;;;;;30.50;21.17;;;;;;;6.65;65.39;98427.34;8381604;28;20257;-72
2022/11/30 10:32:41;;;;;;;29.87;20.90;;;;;;;6.99;65.34;98430.03;8380827;28;20300;-72
2022/11/30 10:36:46;;;;;;;28.27;19.07;;;;;;;6.49;64.86;98431.94;8381499;28;20234;-72
2022/11/30 10:40:54;;;;;;;28.43;18.77;;;;;;;7.05;63.43;98419.56;8381555;28;20520;-72
2022/11/30 10:44:59;;;;;;;29.30;20.33;;;;;;;5.81;66.28;98410.06;8380860;28;20279;-72
2022/11/30 10:49:05;;;;;;;26.97;19.93;;;;;;;6.42;65.03;98428.66;8381220;28;20536;-72
2022/11/30 10:53:10;;;;;;;28.60;19.90;;;;;;;6.37;64.65;98430.47;8380938;28;20552;-72
2022/11/30 10:57:14;;;;;;;26.40;19.17;;;;;;;6.22;65.33;98417.91;8380756;28;20235;-72
2022/11/30 11:01:31;;;;;;;46.13;35.20;;;;;;;6.36;65.49;98421.06;8380921;28;20252;-72
2022/11/30 11:05:34;;;;;;;81.73;53.07;;;;;;;6.73;63.21;98420.28;8380653;28;20452;-72
2022/11/30 11:09:39;;;;;;;28.97;20.50;;;;;;;6.10;65.48;98428.44;8380544;28;20236;-72
2022/11/30 11:13:44;;;;;;;26.40;18.43;;;;;;;5.99;65.47;98432.03;8380274;28;20239;-72
2022/11/30 11:17:47;;;;;;;23.83;17.47;;;;;;;5.94;66.06;98428.69;8380480;28;20229;-73
2022/11/30 11:21:50;;;;;;;25.53;17.83;;;;;;;5.78;66.44;98427.25;8380268;28;20302;-72
2022/11/30 11:25:53;;;;;;;22.93;16.93;;;;;;;6.52;63.72;98425.91;8371726;28;20249;-71
2022/11/30 11:30:04;;;;;;;26.23;19.13;;;;;;;6.23;64.88;98422.19;8380342;28;20224;-73
2022/11/30 11:34:24;;;;;;;25.33;18.00;;;;;;;6.53;64.17;98425.88;8379936;28;20225;-72
2022/11/30 11:38:28;;;;;;;27.70;20.63;;;;;;;6.35;63.62;98433.94;8380040;28;20241;-72
2022/11/30 11:42:33;;;;;;;25.30;18.77;;;;;;;6.89;63.38;98432.81;8380982;28;20256;-72
2022/11/30 11:46:38;;;;;;;28.80;20.67;;;;;;;6.50;63.00;98432.81;8386700;28;20248;-73
2022/11/30 11:50:41;;;;;;;26.30;19.07;;;;;;;6.23;64.41;98427.31;8386781;28;20224;-71
2022/11/30 11:55:06;;;;;;;27.53;19.57;;;;;;;6.70;62.78;98368.91;8379612;28;20228;-71
2022/11/30 11:59:14;;;;;;;27.57;19.77;;;;;;;6.72;62.60;98430.59;8386870;28;20233;-72
2022/11/30 12:03:26;;;;;;;25.27;19.53;;;;;;;6.97;61.60;98430.94;8386558;28;20236;-71
2022/11/30 12:07:34;;;;;;;29.50;20.83;;;;;;;6.96;61.83;98424.94;8386007;28;20279;-72
2022/11/30 12:11:40;;;;;;;27.40;20.70;;;;;;;7.01;61.61;98437.72;8385934;28;20228;-73
2022/11/30 12:15:53;;;;;;;29.17;20.77;;;;;;;7.06;61.14;98430.72;8385604;28;20236;-70
2022/11/30 12:20:02;;;;;;;27.23;20.47;;;;;;;6.52;62.26;98407.88;8385222;28;20300;-70
2022/11/30 12:24:48;;;;;;;28.80;21.80;;;;;;;6.35;63.27;98431.38;8385645;28;20233;-72
2022/11/30 12:29:14;;;;;;;28.23;21.00;;;;;;;6.95;62.34;98424.94;8361352;28;20538;-71
2022/11/30 12:33:25;;;;;;;27.20;20.83;;;;;;;7.20;60.73;98418.38;8382951;28;20236;-70
2022/11/30 12:37:38;;;;;;;31.87;21.20;;;;;;;6.51;62.86;98421.63;8384972;28;20233;-70
2022/11/30 12:41:51;;;;;;;27.67;21.27;;;;;;;7.16;62.00;98415.88;8384929;28;20224;-71
2022/11/30 12:45:58;;;;;;;29.93;22.10;;;;;;;7.47;61.33;98428.91;8384314;28;20235;-70
2022/11/30 12:50:16;;;;;;;28.53;21.17;;;;;;;7.12;60.08;98432.31;8384826;28;20229;-71
2022/11/30 12:54:26;;;;;;;30.33;22.27;;;;;;;7.28;60.00;98427.66;8383877;28;20567;-71
2022/11/30 12:58:36;;;;;;;31.67;23.73;;;;;;;7.17;61.47;98427.91;8384387;28;20575;-71
2022/11/30 13:02:51;;;;;;;28.93;22.60;;;;;;;6.96;62.02;98430.06;8384510;28;20237;-71
2022/11/30 13:06:56;;;;;;;29.40;22.50;;;;;;;6.98;61.76;98418.00;8383834;28;20237;-71
2022/11/30 13:11:03;;;;;;;28.73;21.40;;;;;;;6.92;61.72;98422.47;8383933;28;20291;-72
2022/11/30 13:15:10;;;;;;;27.53;20.53;;;;;;;7.05;60.11;98413.59;8383933;28;20422;-72
2022/11/30 13:19:34;;;;;;;30.10;21.63;;;;;;;6.46;61.63;98414.00;8383024;28;20567;-71
2022/11/30 13:23:40;;;;;;;28.30;20.87;;;;;;;6.63;61.88;98405.94;8383694;28;20232;-71
2022/11/30 13:27:49;;;;;;;28.20;21.47;;;;;;;6.94;59.97;98406.09;8383512;28;20236;-70
2022/11/30 13:32:04;;;;;;;27.63;21.60;;;;;;;7.01;59.74;98415.38;8375694;28;20237;-70
2022/11/30 13:36:22;;;;;;;29.63;22.03;;;;;;;6.97;60.57;98413.75;8383513;28;20244;-71
2022/11/30 13:40:25;;;;;;;27.17;21.17;;;;;;;6.83;60.34;98408.06;8383777;28;20505;-70
2022/11/30 13:44:32;;;;;;;28.20;19.97;;;;;;;7.19;59.31;98413.25;8383105;28;20586;-71
2022/11/30 13:48:38;;;;;;;28.27;20.97;;;;;;;6.87;59.79;98414.81;8383134;28;20235;-71
2022/11/30 13:53:21;;;;;;;27.70;20.57;;;;;;;7.14;59.37;98417.66;8382738;28;20567;-71
2022/11/30 13:58:01;;;;;;;25.33;20.20;;;;;;;6.84;60.44;98414.91;8287997;28;20225;-71
2022/11/30 14:02:57;;;;;;;28.30;21.00;;;;;;;6.62;59.23;98422.25;8382397;28;20228;-71
2022/11/30 14:07:37;;;;;;;23.53;18.27;;;;;;;6.59;58.26;98402.56;8381210;28;20271;-71
2022/11/30 14:11:42;;;;;;;25.40;20.10;;;;;;;6.86;58.66;98418.28;8382247;28;20233;-71
2022/11/30 14:15:55;;;;;;;24.77;19.40;;;;;;;6.18;60.64;98391.41;8382068;28;20228;-70
2022/11/30 14:20:00;;;;;;;27.03;21.27;;;;;;;6.73;59.32;98420.28;8381532;28;20651;-72
2022/11/30 14:24:07;;;;;;;28.10;21.37;;;;;;;6.94;58.43;98421.53;8381768;28;20424;-71
2022/11/30 14:28:14;;;;;;;25.43;19.63;;;;;;;6.56;59.97;98430.09;8381264;28;20240;-70
2022/11/30 14:32:23;;;;;;;24.30;19.57;;;;;;;6.33;60.41;98430.56;8381620;28;20574;-70
2022/11/30 14:36:33;;;;;;;25.07;19.53;;;;;;;6.17;60.81;98441.16;8381066;28;20528;-70
2022/11/30 14:40:38;;;;;;;24.70;19.57;;;;;;;6.46;60.44;98432.00;8381467;28;20236;-70
2022/11/30 14:44:41;;;;;;;23.73;18.17;;;;;;;6.48;61.18;98440.53;8381298;28;20236;-70
2022/11/30 14:48:44;;;;;;;23.40;18.60;;;;;;;6.66;59.12;98441.88;8381096;28;20471;-72
2022/11/30 14:52:55;;;;;;;23.70;19.40;;;;;;;6.25;60.36;98435.84;8380700;28;20229;-70
2022/11/30 14:57:05;;;;;;;22.97;18.17;;;;;;;6.38;58.86;98437.31;8373124;28;20243;-70
2022/11/30 15:01:17;;;;;;;20.90;16.93;;;;;;;6.40;59.16;98434.72;8380786;28;20428;-70
2022/11/30 15:05:22;;;;;;;21.83;17.83;;;;;;;6.38;59.52;98444.19;8380856;28;20511;-72
2022/11/30 15:09:28;;;;;;;20.83;16.73;;;;;;;6.63;58.77;98444.53;8380526;28;20533;-72
2022/11/30 15:13:32;;;;;;;25.70;21.40;;;;;;;6.35;58.95;98439.09;8380017;28;20245;-71
2022/11/30 15:17:45;;;;;;;22.90;17.77;;;;;;;6.25;58.37;98443.56;8380381;28;20251;-71
2022/11/30 15:21:49;;;;;;;24.77;18.10;;;;;;;6.59;58.20;98448.91;8380634;28;20229;-71
2022/11/30 15:25:55;;;;;;;22.40;18.67;;;;;;;6.45;58.16;98441.47;8379725;28;20245;-71
2022/11/30 15:30:00;;;;;;;24.27;18.90;;;;;;;6.52;58.01;98443.91;8372463;28;20295;-70
2022/11/30 15:34:04;;;;;;;22.07;18.70;;;;;;;6.60;57.93;98448.00;8380488;28;20559;-70
2022/11/30 15:38:08;;;;;;;23.70;19.27;;;;;;;6.65;56.74;98455.66;8380044;28;20236;-71
2022/11/30 15:42:18;;;;;;;23.63;18.73;;;;;;;6.07;58.84;98455.03;8380040;28;20249;-71
2022/11/30 15:46:32;;;;;;;23.80;19.37;;;;;;;6.33;58.31;98464.84;8380116;28;20257;-71
2022/11/30 15:50:38;;;;;;;22.90;19.00;;;;;;;6.06;58.59;98454.19;8379967;28;20231;-71
2022/11/30 15:54:48;;;;;;;24.33;18.43;;;;;;;5.99;59.79;98470.59;8379978;28;20232;-71
2022/11/30 15:59:00;;;;;;;21.07;15.77;;;;;;;8.25;82.00;98471.63;8380027;28;20275;-71
2022/11/30 16:03:12;;;;;;;20.60;17.30;;;;;;;7.42;61.13;98475.41;8379438;28;20221;-71
2022/11/30 16:07:16;;;;;;;19.07;16.53;;;;;;;7.37;55.24;98472.09;8379922;28;20229;-71
2022/11/30 16:11:19;;;;;;;21.67;17.00;;;;;;;5.87;58.27;98481.09;8379742;28;20229;-71
2022/11/30 16:15:24;;;;;;;19.70;16.77;;;;;;;6.60;58.08;98476.31;8379600;28;20237;-71
2022/11/30 16:19:28;;;;;;;20.67;17.70;;;;;;;6.34;57.51;98482.00;8379760;28;20247;-71
2022/11/30 16:23:33;;;;;;;20.57;17.13;;;;;;;5.92;58.83;98473.28;8379511;28;20295;-71
2022/11/30 16:27:36;;;;;;;21.73;18.27;;;;;;;5.89;58.81;98481.91;8379317;28;20236;-71
2022/11/30 16:31:39;;;;;;;22.17;17.90;;;;;;;6.09;59.10;98481.56;8383621;28;20397;-71
2022/11/30 16:35:48;;;;;;;22.30;17.83;;;;;;;6.07;59.49;98483.31;8385340;28;20275;-71
2022/11/30 16:39:50;;;;;;;21.47;17.80;;;;;;;5.99;59.97;98493.75;8385264;28;20279;-71
2022/11/30 16:43:54;;;;;;;25.57;19.77;;;;;;;6.36;59.91;98484.50;8384803;28;20228;-70
2022/11/30 16:47:57;;;;;;;26.43;20.67;;;;;;;5.97;60.05;98490.34;8385125;28;20235;-70
2022/11/30 16:52:01;;;;;;;24.30;20.50;;;;;;;5.84;60.99;98493.97;8384816;28;20244;-71
2022/11/30 16:56:05;;;;;;;28.20;21.37;;;;;;;6.13;59.62;98488.38;8384576;28;20567;-71
2022/11/30 17:00:10;;;;;;;27.73;21.13;;;;;;;5.86;59.90;98495.66;8384755;28;20236;-71
2022/11/30 17:04:17;;;;;;;25.00;20.07;;;;;;;6.59;58.56;98492.66;8384596;28;20236;-70
2022/11/30 17:08:21;;;;;;;26.63;21.17;;;;;;;5.78;59.45;98501.81;8384335;28;20232;-70
2022/11/30 17:12:24;;;;;;;26.60;20.83;;;;;;;5.79;60.46;98483.78;8384066;28;20229;-71
2022/11/30 17:16:27;;;;;;;24.63;19.93;;;;;;;6.48;58.11;98502.31;8384001;28;20237;-71
2022/11/30 17:20:30;;;;;;;25.17;20.17;;;;;;;5.86;59.10;98502.50;8383897;28;20225;-71
2022/11/30 17:24:34;;;;;;;24.73;20.67;;;;;;;5.79;59.22;98500.94;8383610;28;20229;-71
2022/11/30 17:28:37;;;;;;;24.73;19.47;;;;;;;5.76;58.99;98511.25;8383741;28;20233;-71
2022/11/30 17:32:40;;;;;;;22.83;18.53;;;;;;;5.48;59.56;98509.97;8383705;28;20236;-71
2022/11/30 17:36:43;;;;;;;23.87;19.17;;;;;;;5.58;59.55;98512.38;8383408;28;20229;-71
2022/11/30 17:40:47;;;;;;;22.87;19.23;;;;;;;5.56;59.31;98521.84;8383057;28;20524;-71
2022/11/30 17:44:50;;;;;;;23.53;19.53;;;;;;;5.71;59.50;98525.91;8356982;28;20239;-71
2022/11/30 17:48:53;;;;;;;22.47;18.60;;;;;;;5.47;59.45;98530.56;8382699;28;20235;-70
2022/11/30 17:52:55;;;;;;;25.80;20.53;;;;;;;5.84;58.78;98535.09;8382600;28;20447;-71
2022/11/30 17:56:59;;;;;;;25.00;19.57;;;;;;;5.62;58.75;98521.75;8382829;28;20237;-72
2022/11/30 18:01:02;;;;;;;23.27;19.17;;;;;;;5.21;59.74;98525.78;8382917;28;20228;-72
2022/11/30 18:05:06;;;;;;;25.83;19.53;;;;;;;5.32;59.71;98536.75;8382922;28;20224;-72
2022/11/30 18:09:08;;;;;;;24.07;18.80;;;;;;;5.36;59.86;98537.56;8382098;28;20276;-71
2022/11/30 18:13:13;;;;;;;24.33;18.93;;;;;;;5.79;59.04;98547.19;8382561;28;20235;-71
2022/11/30 18:17:15;;;;;;;22.57;18.47;;;;;;;5.60;59.02;98547.47;8382600;28;20288;-72
2022/11/30 18:21:20;;;;;;;23.17;18.60;;;;;;;5.65;58.29;98557.69;8382173;28;20275;-72
2022/11/30 18:25:23;;;;;;;23.90;18.63;;;;;;;5.77;58.11;98554.94;8382190;28;20225;-72
2022/11/30 18:29:27;;;;;;;25.90;20.00;;;;;;;5.46;58.17;98564.81;8382107;28;20232;-71
2022/11/30 18:33:30;;;;;;;26.37;20.97;;;;;;;5.51;58.46;98560.47;8381820;28;20250;-72
2022/11/30 18:37:33;;;;;;;24.03;19.13;;;;;;;5.75;58.43;98568.66;8381534;28;20261;-71
2022/11/30 18:41:36;;;;;;;22.43;19.07;;;;;;;6.01;57.23;98565.72;8381574;28;20233;-74
2022/11/30 18:45:40;;;;;;;22.73;19.00;;;;;;;5.83;57.59;98562.53;8381179;28;20229;-73
2022/11/30 18:49:43;;;;;;;23.70;18.47;;;;;;;5.44;58.08;98561.41;8381257;28;20233;-73
2022/11/30 18:53:46;;;;;;;23.87;18.73;;;;;;;5.67;59.05;98566.22;8380605;28;20244;-73
2022/11/30 18:57:49;;;;;;;26.03;19.93;;;;;;;5.78;57.50;98569.47;8381095;28;20232;-74
2022/11/30 19:01:54;;;;;;;22.87;18.40;;;;;;;5.37;58.59;98565.78;8381030;28;20224;-73
2022/11/30 19:05:57;;;;;;;24.90;18.73;;;;;;;6.19;56.78;98562.84;8373059;28;20300;-73
2022/11/30 19:10:02;;;;;;;24.20;20.57;;;;;;;6.24;56.39;98573.91;8380984;28;20240;-73